Time;durP1;ratioP1;P1;durP2;ratioP2;P2;SDS_P1;SDS_P2;PMS_P1;PMS_P2;Temp;Humidity;BMP_temperature;BMP_pressure;BME280_temperature;BME280_humidity;BME280_pressure;Samples;Min_cycle;Max_cycle;Signal;HPM_P1;HPM_P2
2023/07/29 00:01:41;;;;;;;1.65;1.55;;;;;;;-141.84;79.35;21139.16;5065726;28;20327;-69
2023/07/29 00:04:10;;;;;;;1.70;1.60;;;;;;;-141.84;79.47;21143.22;5065216;28;20205;-67
2023/07/29 00:06:38;;;;;;;1.80;1.70;;;;;;;-141.84;79.20;21143.22;5058138;28;20687;-68
2023/07/29 00:09:07;;;;;;;3.25;1.83;;;;;;;-141.84;78.03;21167.63;5065488;28;20255;-68
2023/07/29 00:11:35;;;;;;;1.75;1.65;;;;;;;-141.84;78.09;21151.34;5064761;28;20259;-67
2023/07/29 00:14:05;;;;;;;1.70;1.60;;;;;;;-141.84;78.69;21133.06;5064915;28;20232;-69
2023/07/29 00:16:34;;;;;;;4.93;2.10;;;;;;;-141.84;79.17;21155.44;5057155;28;20307;-68
2023/07/29 00:19:04;;;;;;;2.33;1.80;;;;;;;-141.84;79.63;21145.25;5065053;28;20290;-68
2023/07/29 00:21:32;;;;;;;1.55;1.45;;;;;;;-141.84;79.67;21124.94;5065562;28;20263;-68
2023/07/29 00:24:01;;;;;;;1.60;1.50;;;;;;;-141.84;80.05;21076.13;5065301;28;20221;-69
2023/07/29 00:26:29;;;;;;;1.70;1.60;;;;;;;-141.84;79.97;21100.53;5057456;28;20260;-68
2023/07/29 00:28:58;;;;;;;1.75;1.65;;;;;;;-141.84;80.30;21072.06;5065603;28;20232;-68
2023/07/29 00:31:28;;;;;;;2.38;2.10;;;;;;;-141.84;80.28;21106.63;5065211;28;20259;-69
2023/07/29 00:33:58;;;;;;;1.90;1.80;;;;;;;-141.84;80.43;21068.00;5065355;28;20714;-69
2023/07/29 00:36:26;;;;;;;2.15;1.70;;;;;;;-141.84;80.14;21116.78;5057676;28;20232;-68
2023/07/29 00:38:56;;;;;;;1.70;1.60;;;;;;;-141.84;79.39;21129.00;5064787;28;20237;-68
2023/07/29 00:41:26;;;;;;;3.05;1.80;;;;;;;-141.84;78.73;21155.44;5065016;28;20283;-69
2023/07/29 00:43:54;;;;;;;1.77;1.67;;;;;;;-141.84;78.38;21133.06;5064695;28;20225;-68
2023/07/29 00:46:24;;;;;;;2.00;1.73;;;;;;;-141.84;78.00;21139.16;5064126;28;20456;-68
2023/07/29 00:48:54;;;;;;;1.85;1.63;;;;;;;-141.84;78.66;21165.59;5063539;28;20212;-68
2023/07/29 00:51:22;;;;;;;1.85;1.58;;;;;;;-141.84;78.41;21147.28;5051265;28;20319;-69
2023/07/29 00:53:51;;;;;;;1.50;1.40;;;;;;;-141.84;78.87;21161.53;5061571;28;20603;-70
2023/07/29 00:56:20;;;;;;;2.20;1.70;;;;;;;-141.84;78.57;21192.03;5064458;28;20252;-69
2023/07/29 00:58:48;;;;;;;1.40;1.30;;;;;;;-141.84;78.80;21190.00;5057674;28;20309;-70
2023/07/29 01:01:17;;;;;;;1.35;1.23;;;;;;;-141.84;79.19;21173.72;5064899;28;20228;-69
2023/07/29 01:03:46;;;;;;;2.00;1.90;;;;;;;-141.84;79.20;21171.69;5064589;28;20204;-69
2023/07/29 01:06:24;;;;;;;1.58;1.48;;;;;;;-141.84;79.61;21145.25;5064201;28;20705;-68
2023/07/29 01:08:59;;;;;;;2.30;1.73;;;;;;;-141.84;79.82;21118.84;5063871;28;20316;-69
2023/07/29 01:11:39;;;;;;;1.83;1.50;;;;;;;-141.84;80.33;21151.34;5063014;28;20236;-69
2023/07/29 01:14:18;;;;;;;1.77;1.67;;;;;;;-141.84;80.21;21100.53;5064739;28;20814;-69
2023/07/29 01:16:52;;;;;;;1.38;1.20;;;;;;;-141.84;80.43;21114.75;5056029;28;20790;-70
2023/07/29 01:19:42;;;;;;;1.50;1.40;;;;;;;-141.84;80.49;21116.78;5063517;28;20656;-69
2023/07/29 01:22:13;;;;;;;2.17;1.63;;;;;;;-141.84;80.58;21094.44;5063629;28;20212;-68
2023/07/29 01:24:43;;;;;;;4.40;1.67;;;;;;;-141.84;81.17;21045.63;5056817;28;20225;-69
2023/07/29 01:27:12;;;;;;;2.22;1.85;;;;;;;-141.84;81.98;21031.41;5063880;28;20744;-69
2023/07/29 01:29:40;;;;;;;2.00;1.80;;;;;;;-141.84;81.96;21037.50;5063650;28;20271;-69
2023/07/29 01:32:15;;;;;;;1.70;1.60;;;;;;;-141.84;81.79;21102.56;5063508;28;20236;-70
2023/07/29 01:34:49;;;;;;;1.70;1.60;;;;;;;-141.84;81.84;21096.47;5056535;28;20781;-69
2023/07/29 01:37:26;;;;;;;1.90;1.70;;;;;;;-141.84;81.89;21055.81;5063782;28;20213;-69
2023/07/29 01:39:59;;;;;;;2.20;2.00;;;;;;;-141.84;80.90;21122.91;5064501;28;20208;-69
2023/07/29 01:42:30;;;;;;;2.15;1.70;;;;;;;-141.84;79.77;21110.69;5055889;28;20228;-68
2023/07/29 01:44:59;;;;;;;2.97;1.50;;;;;;;-141.84;79.93;21100.53;5063342;28;20692;-69
2023/07/29 01:47:27;;;;;;;1.50;1.40;;;;;;;-141.84;79.82;21122.91;5054590;28;20243;-69
2023/07/29 01:49:56;;;;;;;2.75;1.73;;;;;;;-141.84;79.90;21139.16;5063569;28;20235;-68
2023/07/29 01:52:24;;;;;;;2.13;1.50;;;;;;;-141.84;80.17;21120.88;5062754;28;20369;-69
2023/07/29 01:54:53;;;;;;;2.13;1.52;;;;;;;-141.84;79.86;21106.63;5061266;28;20295;-69
2023/07/29 01:57:23;;;;;;;1.77;1.60;;;;;;;-141.84;79.97;21118.84;5063582;28;20240;-69
2023/07/29 01:59:51;;;;;;;2.33;1.70;;;;;;;-141.84;79.92;21106.63;5063210;28;20700;-68
2023/07/29 02:02:20;;;;;;;1.90;1.80;;;;;;;-141.84;80.28;21120.88;5063294;28;20243;-69
2023/07/29 02:04:51;;;;;;;1.65;1.55;;;;;;;-141.84;79.60;21120.88;5055537;28;20243;-69
2023/07/29 02:07:20;;;;;;;1.65;1.55;;;;;;;-141.84;78.69;21187.97;5063859;28;20220;-69
2023/07/29 02:09:48;;;;;;;1.80;1.70;;;;;;;-141.84;79.47;21116.78;5063704;28;20296;-68
2023/07/29 02:12:17;;;;;;;1.77;1.67;;;;;;;-141.84;79.65;21106.63;5062766;28;20244;-69
2023/07/29 02:14:46;;;;;;;1.77;1.67;;;;;;;-141.84;79.88;21116.78;5056282;28;20832;-68
2023/07/29 02:17:15;;;;;;;1.60;1.50;;;;;;;-141.84;79.04;21145.25;5062540;28;20668;-70
2023/07/29 02:19:44;;;;;;;1.70;1.60;;;;;;;-141.84;79.24;21145.25;5063058;28;20752;-69
2023/07/29 02:22:14;;;;;;;1.88;1.77;;;;;;;-141.84;79.77;21126.97;5062588;28;20215;-68
2023/07/29 02:24:43;;;;;;;1.70;1.60;;;;;;;-141.84;80.34;21104.59;5055660;28;20297;-70
2023/07/29 02:27:11;;;;;;;2.00;1.90;;;;;;;-141.84;80.41;21131.03;5062831;28;20268;-68
2023/07/29 02:29:40;;;;;;;2.45;1.60;;;;;;;-141.84;80.55;21100.53;5062675;28;20594;-69
2023/07/29 02:32:09;;;;;;;1.80;1.70;;;;;;;-141.84;79.34;21143.22;5062546;28;20255;-69
2023/07/29 02:34:38;;;;;;;1.33;1.25;;;;;;;-141.84;79.44;21104.59;5054724;28;20297;-69
2023/07/29 02:37:06;;;;;;;1.73;1.63;;;;;;;-141.84;80.16;21057.84;5062327;28;20200;-69
2023/07/29 02:39:36;;;;;;;1.85;1.70;;;;;;;-141.84;80.14;21090.38;5062732;28;20219;-69
2023/07/29 02:42:05;;;;;;;1.70;1.60;;;;;;;-141.84;79.27;21143.22;5062468;28;20259;-68
2023/07/29 02:44:34;;;;;;;1.80;1.70;;;;;;;-141.84;80.00;21110.69;5038047;28;20308;-68
2023/07/29 02:47:02;;;;;;;1.77;1.67;;;;;;;-141.84;81.11;21015.16;5062883;28;20224;-69
2023/07/29 02:49:32;;;;;;;2.50;1.92;;;;;;;-141.84;81.66;21029.38;5067705;28;20290;-68
2023/07/29 02:52:00;;;;;;;1.80;1.70;;;;;;;-141.84;82.28;21017.19;5082904;28;20659;-69
2023/07/29 02:54:29;;;;;;;2.38;1.73;;;;;;;-141.84;82.45;21011.09;5074376;28;20259;-68
2023/07/29 02:56:57;;;;;;;1.75;1.65;;;;;;;-141.84;83.04;20964.31;5072605;28;20311;-70
2023/07/29 02:59:26;;;;;;;1.60;1.50;;;;;;;-141.84;83.18;20956.19;5062666;28;20233;-69
2023/07/29 03:01:54;;;;;;;2.22;1.90;;;;;;;-141.84;83.44;20986.69;5062315;28;20255;-68
2023/07/29 03:04:23;;;;;;;2.25;2.05;;;;;;;-141.84;83.97;20935.88;5062373;28;20213;-70
2023/07/29 03:06:53;;;;;;;1.90;1.80;;;;;;;-141.84;83.46;21004.97;5060176;28;20332;-70
2023/07/29 03:09:21;;;;;;;2.20;1.92;;;;;;;-141.84;83.51;20986.69;5041670;28;20713;-70
2023/07/29 03:11:51;;;;;;;1.92;1.83;;;;;;;-141.84;83.53;20998.88;5052966;28;20307;-69
2023/07/29 03:14:20;;;;;;;2.00;1.90;;;;;;;-141.84;83.24;20982.63;5081994;28;20748;-68
2023/07/29 03:16:48;;;;;;;3.05;1.73;;;;;;;-141.84;82.54;20992.78;5074424;28;20267;-69
2023/07/29 03:19:17;;;;;;;1.80;1.70;;;;;;;-141.84;83.93;20944.00;5081473;28;20709;-70
2023/07/29 03:21:46;;;;;;;1.90;1.80;;;;;;;-141.84;84.03;20980.59;5082602;28;20642;-68
2023/07/29 03:24:16;;;;;;;2.10;1.90;;;;;;;-141.84;83.96;20952.13;5081688;28;20288;-69
2023/07/29 03:26:44;;;;;;;1.90;1.80;;;;;;;-141.84;84.60;20917.56;5075304;28;22315;-68
2023/07/29 03:29:14;;;;;;;1.85;1.75;;;;;;;-141.84;84.97;20893.16;5081989;28;20346;-68
2023/07/29 03:31:42;;;;;;;2.80;2.00;;;;;;;-141.84;84.97;20921.63;5082202;28;20671;-68
2023/07/29 03:34:12;;;;;;;2.03;1.92;;;;;;;-141.84;84.97;20939.94;5081595;28;20273;-68
2023/07/29 03:36:41;;;;;;;2.00;1.90;;;;;;;-141.84;84.65;20956.19;5079288;28;20243;-69
2023/07/29 03:39:09;;;;;;;2.20;2.10;;;;;;;-141.84;84.43;20956.19;5063196;28;20329;-68
2023/07/29 03:41:40;;;;;;;2.35;2.15;;;;;;;-141.84;83.10;20960.25;5054395;28;20258;-68
2023/07/29 03:44:08;;;;;;;2.22;2.00;;;;;;;-141.84;84.16;20944.00;5065833;28;20303;-67
2023/07/29 03:46:36;;;;;;;2.05;1.95;;;;;;;-141.84;84.16;20968.38;5058538;28;20314;-68
2023/07/29 03:49:06;;;;;;;2.95;2.10;;;;;;;-141.84;83.81;20964.31;5081542;28;20892;-69
2023/07/29 03:51:34;;;;;;;2.10;2.00;;;;;;;-141.84;82.92;20998.88;5086787;28;20218;-68
2023/07/29 03:54:03;;;;;;;1.98;1.88;;;;;;;-141.84;83.46;20948.06;5086067;28;20231;-69
2023/07/29 03:56:35;;;;;;;2.25;2.00;;;;;;;-141.84;83.51;20978.56;5071518;28;20225;-70
2023/07/29 03:59:06;;;;;;;2.35;2.15;;;;;;;-141.84;84.34;20925.69;5065784;28;20236;-68
2023/07/29 04:01:35;;;;;;;2.47;2.00;;;;;;;-141.84;84.44;20944.00;5065970;28;20712;-70
2023/07/29 04:04:03;;;;;;;1.85;1.75;;;;;;;-141.84;83.75;20952.13;5065684;28;20216;-68
2023/07/29 04:06:33;;;;;;;3.53;2.03;;;;;;;-141.84;83.71;20954.16;5058878;28;20236;-68
2023/07/29 04:09:02;;;;;;;2.10;2.00;;;;;;;-141.84;84.28;20931.78;5065367;28;20609;-68
2023/07/29 04:11:30;;;;;;;2.20;2.10;;;;;;;-141.84;83.33;20996.84;5068214;28;20650;-69
2023/07/29 04:13:59;;;;;;;2.92;2.08;;;;;;;-141.84;82.68;21000.91;5085127;28;20775;-69
2023/07/29 04:16:29;;;;;;;2.17;1.83;;;;;;;-141.84;82.73;20996.84;5081119;28;20243;-69
2023/07/29 04:18:58;;;;;;;2.20;2.10;;;;;;;-141.84;83.56;20939.94;5083930;28;20633;-68
2023/07/29 04:21:26;;;;;;;3.00;2.28;;;;;;;-141.84;83.94;20946.03;5086206;28;20220;-69
2023/07/29 04:23:55;;;;;;;2.35;2.15;;;;;;;-141.84;84.00;20937.91;5085372;28;20423;-69
2023/07/29 04:26:23;;;;;;;2.50;2.30;;;;;;;-141.84;83.10;20944.00;5085948;28;20319;-68
2023/07/29 04:28:52;;;;;;;2.35;2.15;;;;;;;-141.84;83.45;20950.09;5082637;28;20397;-69
2023/07/29 04:31:20;;;;;;;3.15;2.20;;;;;;;-141.84;83.75;20956.19;5085236;28;20639;-67
2023/07/29 04:33:50;;;;;;;2.30;2.10;;;;;;;-141.84;83.89;20988.72;5081498;28;20279;-68
2023/07/29 04:36:18;;;;;;;2.55;2.30;;;;;;;-141.84;83.01;20978.56;5064536;28;20282;-69
2023/07/29 04:38:47;;;;;;;2.00;1.90;;;;;;;-141.84;81.85;21000.91;5057484;28;20331;-68
2023/07/29 04:41:15;;;;;;;2.33;2.20;;;;;;;-141.84;82.33;20972.47;5064939;28;20236;-69
2023/07/29 04:43:44;;;;;;;3.50;2.20;;;;;;;-141.84;82.56;20996.84;5064939;28;20232;-68
2023/07/29 04:46:12;;;;;;;2.08;1.92;;;;;;;-141.84;82.46;20992.78;5064260;28;20208;-68
2023/07/29 04:48:41;;;;;;;2.30;2.20;;;;;;;-141.84;82.36;21004.97;5071006;28;20239;-69
2023/07/29 04:51:11;;;;;;;2.50;2.05;;;;;;;-141.84;81.52;21039.53;5065074;28;20267;-68
2023/07/29 04:53:39;;;;;;;3.63;2.22;;;;;;;-141.84;81.09;21049.72;5064596;28;20242;-68
2023/07/29 04:56:08;;;;;;;2.20;2.00;;;;;;;-141.84;80.34;21063.94;5061201;28;20783;-68
2023/07/29 04:58:36;;;;;;;2.35;1.95;;;;;;;-141.84;80.42;21070.03;5037198;28;20236;-68
2023/07/29 05:01:06;;;;;;;2.65;2.45;;;;;;;-141.84;78.68;21181.84;5043874;28;20356;-67
2023/07/29 05:03:34;;;;;;;2.15;1.95;;;;;;;-141.84;74.44;21460.41;5045329;28;20296;-70
2023/07/29 05:06:03;;;;;;;2.03;1.83;;;;;;;-141.84;67.52;21968.72;5044463;28;20228;-70
2023/07/29 05:08:32;;;;;;;1.63;1.52;;;;;;;-141.84;59.88;22599.16;5036495;28;20324;-68
2023/07/29 05:11:01;;;;;;;1.60;1.50;;;;;;;-141.84;54.61;23150.38;5043964;28;20693;-69
2023/07/29 05:13:30;;;;;;;2.63;1.75;;;;;;;-141.84;51.17;23597.91;5044518;28;20320;-68
2023/07/29 05:15:58;;;;;;;1.50;1.40;;;;;;;-141.84;49.05;23929.50;5044165;28;20244;-69
2023/07/29 05:18:27;;;;;;;1.70;1.60;;;;;;;-141.84;47.36;24004.78;5047848;28;20282;-67
2023/07/29 05:20:55;;;;;;;1.50;1.40;;;;;;;-141.84;46.10;24263.19;5064343;28;20320;-69
2023/07/29 05:23:24;;;;;;;2.78;1.55;;;;;;;-141.84;47.25;24037.34;5064451;28;20319;-69
2023/07/29 05:25:54;;;;;;;1.50;1.40;;;;;;;-141.84;46.88;23960.03;5064026;28;20286;-68
2023/07/29 05:28:22;;;;;;;1.50;1.40;;;;;;;-141.84;48.93;23557.22;5063807;28;20246;-69
2023/07/29 05:30:51;;;;;;;1.48;1.38;;;;;;;-141.84;51.29;23254.09;5060005;28;20236;-68
2023/07/29 05:33:19;;;;;;;2.08;1.42;;;;;;;-141.84;54.40;22839.16;5044116;28;20336;-69
2023/07/29 05:35:48;;;;;;;1.55;1.45;;;;;;;-141.84;56.52;22631.72;5063683;28;20236;-68
2023/07/29 05:38:16;;;;;;;1.42;1.33;;;;;;;-141.84;57.89;22432.41;5064052;28;20602;-68
2023/07/29 05:40:45;;;;;;;1.50;1.40;;;;;;;-141.84;60.16;22304.28;5056007;28;20331;-68
2023/07/29 05:43:15;;;;;;;1.80;1.70;;;;;;;-141.84;60.82;22243.25;5064120;28;20424;-69
2023/07/29 05:45:43;;;;;;;3.10;1.70;;;;;;;-141.84;61.81;22147.69;5053213;28;20224;-69
2023/07/29 05:48:12;;;;;;;3.80;1.90;;;;;;;-141.84;62.77;22094.81;5052066;28;20315;-67
2023/07/29 05:50:40;;;;;;;1.98;1.65;;;;;;;-141.84;63.34;22068.38;5055931;28;20764;-69
2023/07/29 05:53:09;;;;;;;1.90;1.70;;;;;;;-141.84;63.87;22029.75;5063641;28;20235;-69
2023/07/29 05:55:37;;;;;;;1.77;1.67;;;;;;;-141.84;63.70;22035.84;5063928;28;20319;-69
2023/07/29 05:58:05;;;;;;;3.05;1.80;;;;;;;-141.84;63.38;22096.84;5060726;28;20311;-68
2023/07/29 06:00:35;;;;;;;2.00;1.83;;;;;;;-141.84;62.89;22127.34;5044892;28;20276;-69
2023/07/29 06:03:04;;;;;;;1.77;1.67;;;;;;;-141.84;63.00;22102.94;5043528;28;20233;-69
2023/07/29 06:05:33;;;;;;;1.80;1.70;;;;;;;-141.84;62.72;22100.91;5043192;28;20647;-68
2023/07/29 06:08:01;;;;;;;1.90;1.70;;;;;;;-141.84;62.58;22155.81;5043149;28;20318;-70
2023/07/29 06:10:30;;;;;;;1.67;1.58;;;;;;;-141.84;61.85;22176.16;5035350;28;20255;-67
2023/07/29 06:12:58;;;;;;;1.98;1.70;;;;;;;-141.84;61.55;22166.00;5043721;28;20297;-69
2023/07/29 06:15:26;;;;;;;1.90;1.70;;;;;;;-141.84;61.20;22243.25;5043312;28;20738;-68
2023/07/29 06:17:56;;;;;;;1.77;1.67;;;;;;;-141.84;60.23;22336.81;5055738;28;20599;-69
2023/07/29 06:20:25;;;;;;;1.95;1.85;;;;;;;-141.84;60.56;22290.03;5041127;28;20290;-69
2023/07/29 06:22:54;;;;;;;3.05;1.70;;;;;;;-141.84;60.05;22271.72;5041679;28;20229;-69
2023/07/29 06:25:22;;;;;;;2.85;2.00;;;;;;;-141.84;60.45;22279.88;5043437;28;20248;-68
2023/07/29 06:27:51;;;;;;;3.50;1.90;;;;;;;-141.84;59.89;22247.34;5043387;28;20267;-70
2023/07/29 06:30:19;;;;;;;2.05;1.70;;;;;;;-141.84;60.88;22227.00;5042708;28;20231;-69
2023/07/29 06:32:48;;;;;;;2.30;2.10;;;;;;;-141.84;60.60;22198.53;5034619;28;20229;-69
2023/07/29 06:35:18;;;;;;;2.00;1.90;;;;;;;-141.84;61.22;22220.91;5058890;28;20582;-70
2023/07/29 06:37:46;;;;;;;1.90;1.80;;;;;;;-141.84;60.51;22239.19;5062887;28;21015;-69
2023/07/29 06:40:15;;;;;;;2.05;1.95;;;;;;;-141.84;60.73;22220.91;5062209;28;20236;-69
2023/07/29 06:42:43;;;;;;;1.90;1.80;;;;;;;-141.84;60.96;22233.09;5055044;28;20295;-69
2023/07/29 06:45:12;;;;;;;2.97;2.03;;;;;;;-141.84;61.12;22294.09;5056368;28;20317;-69
2023/07/29 06:47:41;;;;;;;1.70;1.60;;;;;;;-141.84;59.94;22314.44;5046678;28;20278;-68
2023/07/29 06:50:10;;;;;;;2.20;2.00;;;;;;;-141.84;59.26;22346.97;5061294;28;20260;-69
2023/07/29 06:52:40;;;;;;;2.10;2.00;;;;;;;-141.84;59.46;22312.41;5048108;28;20316;-69
2023/07/29 06:55:09;;;;;;;1.77;1.67;;;;;;;-141.84;59.52;22381.56;5042760;28;20235;-69
2023/07/29 06:57:37;;;;;;;1.80;1.70;;;;;;;-141.84;58.88;22399.84;5057383;28;20649;-72
2023/07/29 07:00:09;;;;;;;2.55;1.80;;;;;;;-141.84;59.83;22310.38;5056423;28;20335;-68
2023/07/29 07:02:37;;;;;;;2.53;1.90;;;;;;;-141.84;59.90;22342.91;5034399;28;20306;-69
2023/07/29 07:05:06;;;;;;;1.98;1.70;;;;;;;-141.84;59.26;22424.25;5042356;28;20251;-70
2023/07/29 07:07:35;;;;;;;2.15;1.80;;;;;;;-141.84;58.40;22540.19;5042741;28;20282;-68
2023/07/29 07:10:06;;;;;;;2.03;1.77;;;;;;;-141.84;56.80;22645.94;5042236;28;20318;-69
2023/07/29 07:12:34;;;;;;;2.55;1.65;;;;;;;-141.84;55.08;22806.63;5035553;28;20701;-70
2023/07/29 07:15:03;;;;;;;3.85;1.80;;;;;;;-141.84;54.71;22861.53;5062516;28;20231;-69
2023/07/29 07:17:31;;;;;;;2.00;1.80;;;;;;;-141.84;53.73;22957.13;5058667;28;20691;-70
2023/07/29 07:20:00;;;;;;;3.58;1.77;;;;;;;-141.84;53.46;22961.19;5041757;28;20779;-69
2023/07/29 07:22:28;;;;;;;1.77;1.67;;;;;;;-141.84;53.79;22908.31;5035171;28;20308;-67
2023/07/29 07:24:57;;;;;;;1.60;1.50;;;;;;;-141.84;53.72;22894.06;5043195;28;20213;-68
2023/07/29 07:27:26;;;;;;;1.73;1.63;;;;;;;-141.84;53.53;22938.81;5041925;28;20228;-68
2023/07/29 07:29:55;;;;;;;1.95;1.70;;;;;;;-141.84;54.25;22835.09;5042553;28;20328;-70
2023/07/29 07:32:23;;;;;;;1.90;1.80;;;;;;;-141.84;54.74;22808.66;5041385;28;20316;-69
2023/07/29 07:34:52;;;;;;;2.88;1.73;;;;;;;-141.84;54.23;22719.16;5051683;28;20236;-69
2023/07/29 07:37:20;;;;;;;1.77;1.67;;;;;;;-141.84;55.12;22711.03;5061608;28;20753;-69
2023/07/29 07:39:49;;;;;;;1.63;1.52;;;;;;;-141.84;54.47;22715.09;5062378;28;20375;-69
2023/07/29 07:42:17;;;;;;;1.75;1.65;;;;;;;-141.84;53.93;22778.16;5047757;28;20308;-69
2023/07/29 07:44:47;;;;;;;1.80;1.70;;;;;;;-141.84;53.98;22765.94;5034971;28;20778;-69
2023/07/29 07:47:16;;;;;;;2.05;1.85;;;;;;;-141.84;54.22;22808.66;5042466;28;20320;-68
2023/07/29 07:49:44;;;;;;;1.88;1.77;;;;;;;-141.84;54.60;22765.94;5055321;28;20786;-70
2023/07/29 07:52:13;;;;;;;1.75;1.65;;;;;;;-141.84;53.92;22857.47;5061239;28;20617;-69
2023/07/29 07:54:41;;;;;;;1.70;1.55;;;;;;;-141.84;53.34;22796.44;5055080;28;20204;-69
2023/07/29 07:57:10;;;;;;;1.80;1.52;;;;;;;-141.84;53.79;22765.94;5061951;28;20232;-68
2023/07/29 07:59:38;;;;;;;1.60;1.50;;;;;;;-141.84;54.14;22767.97;5061693;28;20232;-69
2023/07/29 08:02:08;;;;;;;1.83;1.52;;;;;;;-141.84;54.76;22721.19;5061486;28;20290;-68
2023/07/29 08:04:37;;;;;;;1.85;1.75;;;;;;;-141.84;54.83;22741.53;5053486;28;20312;-69
2023/07/29 08:07:06;;;;;;;1.85;1.50;;;;;;;-141.84;54.56;22737.47;5062025;28;20299;-68
2023/07/29 08:09:34;;;;;;;2.17;1.60;;;;;;;-141.84;54.32;22753.75;5062191;28;20590;-69
2023/07/29 08:12:03;;;;;;;1.90;1.80;;;;;;;-141.84;54.45;22747.63;5061391;28;20243;-69
2023/07/29 08:14:31;;;;;;;1.77;1.67;;;;;;;-141.84;54.89;22725.25;5054365;28;20246;-69
2023/07/29 08:17:00;;;;;;;1.90;1.80;;;;;;;-141.84;55.35;22650.00;5062061;28;20340;-65
2023/07/29 08:19:30;;;;;;;2.75;1.70;;;;;;;-141.84;55.65;22647.97;5061296;28;20259;-65
2023/07/29 08:21:58;;;;;;;3.08;2.00;;;;;;;-141.84;56.25;22586.97;5063972;28;20204;-65
2023/07/29 08:24:27;;;;;;;1.90;1.80;;;;;;;-141.84;56.44;22617.47;5061480;28;20286;-64
2023/07/29 08:26:55;;;;;;;1.60;1.50;;;;;;;-141.84;56.30;22621.53;5065447;28;20231;-65
2023/07/29 08:29:24;;;;;;;1.90;1.80;;;;;;;-141.84;56.12;22631.72;5065572;28;20783;-65
2023/07/29 08:31:52;;;;;;;1.98;1.67;;;;;;;-141.84;55.87;22741.53;5064619;28;20820;-65
2023/07/29 08:34:21;;;;;;;1.70;1.60;;;;;;;-141.84;54.77;22721.19;5064539;28;20213;-65
2023/07/29 08:36:50;;;;;;;1.70;1.60;;;;;;;-141.84;54.84;22702.88;5057775;28;21440;-66
2023/07/29 08:39:19;;;;;;;1.60;1.50;;;;;;;-141.84;54.51;22761.88;5065232;28;20330;-65
2023/07/29 08:42:02;;;;;;;2.17;1.88;;;;;;;-141.84;52.86;22961.19;5065187;28;20232;-65
2023/07/29 08:44:36;;;;;;;1.80;1.70;;;;;;;-141.84;52.06;22942.91;5057571;28;20232;-67
2023/07/29 08:47:06;;;;;;;1.95;1.50;;;;;;;-141.84;52.54;23010.00;5065044;28;20263;-66
2023/07/29 08:49:35;;;;;;;1.83;1.60;;;;;;;-141.84;52.04;23050.69;5059595;28;20255;-65
2023/07/29 08:52:07;;;;;;;1.80;1.70;;;;;;;-141.84;52.39;23030.34;5050571;28;20767;-65
2023/07/29 08:54:36;;;;;;;1.65;1.55;;;;;;;-141.84;51.61;23158.50;5053559;28;20301;-65
2023/07/29 08:57:07;;;;;;;2.05;1.60;;;;;;;-141.84;51.62;23101.53;5054313;28;20221;-66
2023/07/29 08:59:35;;;;;;;2.22;1.60;;;;;;;-141.84;52.25;23107.66;5049392;28;20725;-65
2023/07/29 09:02:04;;;;;;;1.65;1.55;;;;;;;-141.84;51.35;23186.97;5052798;28;20228;-66
2023/07/29 09:04:32;;;;;;;1.67;1.58;;;;;;;-141.84;51.78;23186.97;5045684;28;20731;-65
2023/07/29 09:07:01;;;;;;;1.70;1.60;;;;;;;-141.84;51.66;23217.50;5055300;28;20204;-65
2023/07/29 09:09:31;;;;;;;1.67;1.58;;;;;;;-141.84;51.47;23205.28;5051940;28;20704;-65
2023/07/29 09:11:59;;;;;;;2.08;1.88;;;;;;;-141.84;50.07;23309.03;5052906;28;20699;-64
2023/07/29 09:14:29;;;;;;;1.67;1.58;;;;;;;-141.84;50.17;23325.31;5047277;28;20232;-65
2023/07/29 09:16:57;;;;;;;1.77;1.67;;;;;;;-141.84;50.31;23315.13;5054510;28;20752;-66
2023/07/29 09:19:27;;;;;;;1.70;1.60;;;;;;;-141.84;50.33;23300.91;5051338;28;20581;-65
2023/07/29 09:21:55;;;;;;;1.80;1.40;;;;;;;-141.84;49.94;23319.19;5052851;28;20197;-65
2023/07/29 09:24:24;;;;;;;1.23;1.17;;;;;;;-141.84;50.35;23349.72;5052358;28;20605;-64
2023/07/29 09:26:55;;;;;;;2.75;1.17;;;;;;;-141.84;49.37;23429.03;5048600;28;20319;-66
2023/07/29 09:29:24;;;;;;;1.50;1.10;;;;;;;-141.84;49.52;23302.94;5054366;28;20227;-65
2023/07/29 09:31:53;;;;;;;1.73;0.90;;;;;;;-141.84;50.00;23248.00;5041663;28;20244;-65
2023/07/29 09:34:21;;;;;;;0.77;0.77;;;;;;;-141.84;49.36;23258.19;5042593;28;20757;-65
2023/07/29 09:36:52;;;;;;;1.70;1.00;;;;;;;-141.84;49.93;23262.25;5036083;28;20224;-64
2023/07/29 09:39:25;;;;;;;0.93;0.88;;;;;;;-141.84;49.69;23298.84;5043859;28;21059;-65
2023/07/29 09:41:54;;;;;;;1.17;1.10;;;;;;;-141.84;49.62;23355.81;5043402;28;20279;-65
2023/07/29 09:44:23;;;;;;;1.02;1.00;;;;;;;-141.84;49.83;23321.22;5043501;28;20236;-66
2023/07/29 09:46:51;;;;;;;1.00;1.00;;;;;;;-141.84;50.74;23241.91;5039307;28;20234;-66
2023/07/29 09:49:20;;;;;;;1.73;1.15;;;;;;;-141.84;50.97;23195.13;5042537;28;20236;-66
2023/07/29 09:51:48;;;;;;;1.13;1.02;;;;;;;-141.84;51.79;23136.13;5040119;28;20221;-65
2023/07/29 09:54:18;;;;;;;1.27;1.17;;;;;;;-141.84;51.51;23097.47;5029446;28;20234;-64
2023/07/29 09:56:48;;;;;;;1.13;1.02;;;;;;;-141.84;52.04;23071.03;5034488;28;20255;-64
2023/07/29 09:59:20;;;;;;;1.25;1.00;;;;;;;-141.84;52.54;23012.06;5044015;28;20323;-64
2023/07/29 10:01:49;;;;;;;0.90;0.90;;;;;;;-141.84;52.57;22920.53;5023788;28;20225;-66
2023/07/29 10:04:18;;;;;;;2.88;1.27;;;;;;;-141.84;52.33;23042.56;5023568;28;20210;-64
2023/07/29 10:06:47;;;;;;;0.90;0.90;;;;;;;-141.84;51.97;23018.16;5016254;28;20210;-65
2023/07/29 10:09:16;;;;;;;1.02;0.95;;;;;;;-141.84;51.71;23087.31;5023143;28;20240;-64
2023/07/29 10:11:45;;;;;;;3.30;1.02;;;;;;;-141.84;52.09;23191.06;5027670;28;20213;-64
2023/07/29 10:14:14;;;;;;;1.10;1.00;;;;;;;-141.84;51.38;23237.84;5033697;28;20235;-64
2023/07/29 10:16:47;;;;;;;2.15;1.10;;;;;;;-141.84;50.83;23315.13;5035087;28;20225;-65
2023/07/29 10:19:18;;;;;;;1.38;1.08;;;;;;;-141.84;50.36;23380.22;5042681;28;20209;-65
2023/07/29 10:21:49;;;;;;;1.90;1.13;;;;;;;-141.84;49.97;23341.56;5043211;28;20561;-65
2023/07/29 10:24:28;;;;;;;1.10;1.00;;;;;;;-141.84;50.84;23256.13;5042996;28;20231;-64
2023/07/29 10:26:59;;;;;;;0.88;0.88;;;;;;;-141.84;51.52;23174.78;5042835;28;20319;-64
2023/07/29 10:29:32;;;;;;;1.20;1.10;;;;;;;-141.84;53.16;22993.75;5045732;28;20221;-65
2023/07/29 10:32:04;;;;;;;1.15;1.08;;;;;;;-141.84;53.29;22973.41;5046932;28;20295;-65
2023/07/29 10:34:33;;;;;;;1.20;1.08;;;;;;;-141.84;54.23;22841.19;5035511;28;20313;-65
2023/07/29 10:37:02;;;;;;;2.00;1.30;;;;;;;-141.84;54.58;22869.66;5043446;28;20255;-65
2023/07/29 10:39:40;;;;;;;0.93;0.93;;;;;;;-141.84;54.24;22922.56;5048502;28;20220;-67
2023/07/29 10:42:08;;;;;;;1.83;1.08;;;;;;;-141.84;53.96;22924.59;5044237;28;20213;-61
2023/07/29 10:44:51;;;;;;;1.10;1.00;;;;;;;-141.84;53.54;22989.69;5036692;28;20712;-61
2023/07/29 10:47:23;;;;;;;1.00;1.00;;;;;;;-141.84;53.06;23077.13;5046563;28;20228;-61
2023/07/29 10:49:54;;;;;;;1.60;1.50;;;;;;;-141.84;53.32;23134.09;5050882;28;20243;-63
2023/07/29 10:52:40;;;;;;;2.97;1.30;;;;;;;-141.84;57.59;22932.72;5061217;28;20228;-63
2023/07/29 10:55:28;;;;;;;1.95;1.40;;;;;;;-141.84;59.93;22767.97;5058578;28;20200;-63
2023/07/29 10:58:08;;;;;;;1.63;1.52;;;;;;;-141.84;61.48;22729.34;5061714;28;20307;-63
2023/07/29 11:00:36;;;;;;;1.75;1.48;;;;;;;-141.84;61.84;22802.56;5054101;28;20299;-63
2023/07/29 11:03:08;;;;;;;2.65;1.40;;;;;;;-141.84;60.98;22926.63;5059733;28;20323;-64
2023/07/29 11:05:54;;;;;;;1.80;1.30;;;;;;;-141.84;60.53;22926.63;5059879;28;20224;-63
2023/07/29 11:08:27;;;;;;;1.60;1.50;;;;;;;-141.84;59.28;23121.88;5058767;28;20274;-63
2023/07/29 11:11:03;;;;;;;1.52;1.40;;;;;;;-141.84;59.17;23007.97;5059987;28;21392;-68
2023/07/29 11:13:32;;;;;;;1.40;1.30;;;;;;;-141.84;57.22;23005.94;5060322;28;20243;-66
2023/07/29 11:16:01;;;;;;;3.30;1.52;;;;;;;-141.84;58.34;22942.91;5060175;28;20214;-66
2023/07/29 11:18:33;;;;;;;1.30;1.20;;;;;;;-141.84;57.99;23048.66;5051525;28;20224;-66
2023/07/29 11:21:03;;;;;;;1.52;1.42;;;;;;;-141.84;57.38;23091.38;5059199;28;20246;-66
2023/07/29 11:23:33;;;;;;;1.70;1.60;;;;;;;-141.84;56.88;23058.84;5061115;28;20321;-68
2023/07/29 11:26:03;;;;;;;1.55;1.45;;;;;;;-141.84;56.99;23012.06;5061082;28;20534;-66
2023/07/29 11:28:32;;;;;;;2.35;1.85;;;;;;;-141.84;56.05;22928.66;5051976;28;20315;-66